sensor_id;sensor_type;location;lat;lon;timestamp;temperature;humidity
5457;DHT22;2751;49.802;9.944;2023-08-06T00:00:56;16.00;99.90
5457;DHT22;2751;49.802;9.944;2023-08-06T00:03:23;16.00;99.90
5457;DHT22;2751;49.802;9.944;2023-08-06T00:05:50;16.00;99.90
5457;DHT22;2751;49.802;9.944;2023-08-06T00:08:17;16.00;99.90
5457;DHT22;2751;49.802;9.944;2023-08-06T00:10:47;16.10;99.90
5457;DHT22;2751;49.802;9.944;2023-08-06T00:13:14;16.00;99.90
5457;DHT22;2751;49.802;9.944;2023-08-06T00:15:41;16.00;99.90
5457;DHT22;2751;49.802;9.944;2023-08-06T00:18:08;15.90;99.90
5457;DHT22;2751;49.802;9.944;2023-08-06T00:20:34;15.90;99.90
5457;DHT22;2751;49.802;9.944;2023-08-06T00:23:01;15.90;99.90
5457;DHT22;2751;49.802;9.944;2023-08-06T00:25:28;15.80;99.90
5457;DHT22;2751;49.802;9.944;2023-08-06T00:27:56;15.80;99.90
5457;DHT22;2751;49.802;9.944;2023-08-06T00:30:23;15.80;99.90
5457;DHT22;2751;49.802;9.944;2023-08-06T00:32:50;15.80;99.90
5457;DHT22;2751;49.802;9.944;2023-08-06T00:35:17;15.70;99.90
5457;DHT22;2751;49.802;9.944;2023-08-06T00:37:44;15.70;99.90
5457;DHT22;2751;49.802;9.944;2023-08-06T00:40:11;15.60;99.90
5457;DHT22;2751;49.802;9.944;2023-08-06T00:42:37;15.70;99.90
5457;DHT22;2751;49.802;9.944;2023-08-06T00:45:07;15.70;99.90
5457;DHT22;2751;49.802;9.944;2023-08-06T00:47:34;15.70;99.90
5457;DHT22;2751;49.802;9.944;2023-08-06T00:50:01;15.70;99.90
5457;DHT22;2751;49.802;9.944;2023-08-06T00:52:28;15.60;99.90
5457;DHT22;2751;49.802;9.944;2023-08-06T00:54:55;15.60;99.90
5457;DHT22;2751;49.802;9.944;2023-08-06T00:57:24;15.60;99.90
5457;DHT22;2751;49.802;9.944;2023-08-06T00:59:52;15.60;99.90
5457;DHT22;2751;49.802;9.944;2023-08-06T01:02:20;15.50;99.90
5457;DHT22;2751;49.802;9.944;2023-08-06T01:04:47;15.60;99.90
5457;DHT22;2751;49.802;9.944;2023-08-06T01:07:21;15.60;99.90
5457;DHT22;2751;49.802;9.944;2023-08-06T01:10:00;15.60;99.90
5457;DHT22;2751;49.802;9.944;2023-08-06T01:12:39;15.60;99.90
5457;DHT22;2751;49.802;9.944;2023-08-06T01:15:14;15.60;99.90
5457;DHT22;2751;49.802;9.944;2023-08-06T01:17:45;15.70;99.90
5457;DHT22;2751;49.802;9.944;2023-08-06T01:20:12;15.70;99.90
5457;DHT22;2751;49.802;9.944;2023-08-06T01:22:41;15.70;99.90
5457;DHT22;2751;49.802;9.944;2023-08-06T01:25:08;15.80;99.90
5457;DHT22;2751;49.802;9.944;2023-08-06T01:27:43;15.80;99.90
5457;DHT22;2751;49.802;9.944;2023-08-06T01:30:13;15.70;99.90
5457;DHT22;2751;49.802;9.944;2023-08-06T01:32:44;15.70;99.90
5457;DHT22;2751;49.802;9.944;2023-08-06T01:35:13;15.70;99.90
5457;DHT22;2751;49.802;9.944;2023-08-06T01:37:42;15.60;99.90
5457;DHT22;2751;49.802;9.944;2023-08-06T01:40:10;15.50;99.90
5457;DHT22;2751;49.802;9.944;2023-08-06T01:42:37;15.60;99.90
5457;DHT22;2751;49.802;9.944;2023-08-06T01:45:05;15.50;99.90
5457;DHT22;2751;49.802;9.944;2023-08-06T01:47:32;15.50;99.90
5457;DHT22;2751;49.802;9.944;2023-08-06T01:49:59;15.50;99.90
5457;DHT22;2751;49.802;9.944;2023-08-06T01:52:27;15.50;99.90
5457;DHT22;2751;49.802;9.944;2023-08-06T01:54:55;15.50;99.90
5457;DHT22;2751;49.802;9.944;2023-08-06T01:57:22;15.40;99.90
5457;DHT22;2751;49.802;9.944;2023-08-06T01:59:49;15.40;99.90
5457;DHT22;2751;49.802;9.944;2023-08-06T02:02:16;15.40;99.90
5457;DHT22;2751;49.802;9.944;2023-08-06T02:04:43;15.40;99.90
5457;DHT22;2751;49.802;9.944;2023-08-06T02:07:10;15.30;99.90
5457;DHT22;2751;49.802;9.944;2023-08-06T02:09:36;14.90;99.90
5457;DHT22;2751;49.802;9.944;2023-08-06T02:12:06;15.20;99.90
5457;DHT22;2751;49.802;9.944;2023-08-06T02:14:33;15.20;99.90
5457;DHT22;2751;49.802;9.944;2023-08-06T02:17:00;15.10;99.90
5457;DHT22;2751;49.802;9.944;2023-08-06T02:19:26;15.10;99.90
5457;DHT22;2751;49.802;9.944;2023-08-06T02:21:53;15.10;99.90
5457;DHT22;2751;49.802;9.944;2023-08-06T02:24:20;15.00;99.90
5457;DHT22;2751;49.802;9.944;2023-08-06T02:26:47;15.00;99.90
5457;DHT22;2751;49.802;9.944;2023-08-06T02:29:17;14.90;99.90
5457;DHT22;2751;49.802;9.944;2023-08-06T02:31:44;14.90;99.90
5457;DHT22;2751;49.802;9.944;2023-08-06T02:34:11;14.90;99.90
5457;DHT22;2751;49.802;9.944;2023-08-06T02:36:38;14.90;99.90
5457;DHT22;2751;49.802;9.944;2023-08-06T02:39:05;14.80;99.90
5457;DHT22;2751;49.802;9.944;2023-08-06T02:41:32;14.80;99.90
5457;DHT22;2751;49.802;9.944;2023-08-06T02:43:59;14.80;99.90
5457;DHT22;2751;49.802;9.944;2023-08-06T02:46:27;14.80;99.90
5457;DHT22;2751;49.802;9.944;2023-08-06T02:48:54;14.90;99.90
5457;DHT22;2751;49.802;9.944;2023-08-06T02:51:20;14.90;99.90
5457;DHT22;2751;49.802;9.944;2023-08-06T02:53:48;14.90;99.90
5457;DHT22;2751;49.802;9.944;2023-08-06T02:56:15;14.90;99.90
5457;DHT22;2751;49.802;9.944;2023-08-06T02:58:42;14.90;99.90
5457;DHT22;2751;49.802;9.944;2023-08-06T03:01:08;15.00;99.90
5457;DHT22;2751;49.802;9.944;2023-08-06T03:03:37;15.00;99.90
5457;DHT22;2751;49.802;9.944;2023-08-06T03:06:04;15.00;99.90
5457;DHT22;2751;49.802;9.944;2023-08-06T03:08:30;15.00;99.90
5457;DHT22;2751;49.802;9.944;2023-08-06T03:10:57;15.00;99.90
5457;DHT22;2751;49.802;9.944;2023-08-06T03:13:24;15.00;99.90
5457;DHT22;2751;49.802;9.944;2023-08-06T03:15:55;15.00;99.90
5457;DHT22;2751;49.802;9.944;2023-08-06T03:18:22;15.00;99.90
5457;DHT22;2751;49.802;9.944;2023-08-06T03:20:50;15.00;99.90
5457;DHT22;2751;49.802;9.944;2023-08-06T03:23:17;15.00;99.90
5457;DHT22;2751;49.802;9.944;2023-08-06T03:25:44;14.90;99.90
5457;DHT22;2751;49.802;9.944;2023-08-06T03:28:11;14.90;99.90
5457;DHT22;2751;49.802;9.944;2023-08-06T03:30:38;14.80;99.90
5457;DHT22;2751;49.802;9.944;2023-08-06T03:33:05;14.80;99.90
5457;DHT22;2751;49.802;9.944;2023-08-06T03:35:32;14.80;99.90
5457;DHT22;2751;49.802;9.944;2023-08-06T03:38:00;14.80;99.90
5457;DHT22;2751;49.802;9.944;2023-08-06T03:40:27;14.90;99.90
5457;DHT22;2751;49.802;9.944;2023-08-06T03:42:54;14.90;99.90
5457;DHT22;2751;49.802;9.944;2023-08-06T03:45:21;14.90;99.90
5457;DHT22;2751;49.802;9.944;2023-08-06T03:47:48;15.00;99.90
5457;DHT22;2751;49.802;9.944;2023-08-06T03:50:15;15.00;99.90
5457;DHT22;2751;49.802;9.944;2023-08-06T03:52:42;14.90;99.90
5457;DHT22;2751;49.802;9.944;2023-08-06T03:55:10;15.00;99.90
5457;DHT22;2751;49.802;9.944;2023-08-06T03:57:37;15.00;99.90
5457;DHT22;2751;49.802;9.944;2023-08-06T04:00:05;15.00;99.90
5457;DHT22;2751;49.802;9.944;2023-08-06T04:02:32;14.90;99.90
5457;DHT22;2751;49.802;9.944;2023-08-06T04:05:00;14.90;99.90
5457;DHT22;2751;49.802;9.944;2023-08-06T04:07:27;14.90;99.90
5457;DHT22;2751;49.802;9.944;2023-08-06T04:09:55;14.90;99.90
5457;DHT22;2751;49.802;9.944;2023-08-06T04:12:23;14.90;99.90
5457;DHT22;2751;49.802;9.944;2023-08-06T04:14:50;14.90;99.90
5457;DHT22;2751;49.802;9.944;2023-08-06T04:17:18;14.90;99.90
5457;DHT22;2751;49.802;9.944;2023-08-06T04:19:47;14.90;99.90
5457;DHT22;2751;49.802;9.944;2023-08-06T04:22:14;14.90;99.90
5457;DHT22;2751;49.802;9.944;2023-08-06T04:24:41;14.80;99.90
5457;DHT22;2751;49.802;9.944;2023-08-06T04:27:09;14.90;99.90
5457;DHT22;2751;49.802;9.944;2023-08-06T04:29:38;14.90;99.90
5457;DHT22;2751;49.802;9.944;2023-08-06T04:32:06;14.80;99.90
5457;DHT22;2751;49.802;9.944;2023-08-06T04:34:33;14.80;99.90
5457;DHT22;2751;49.802;9.944;2023-08-06T04:37:00;14.80;99.90
5457;DHT22;2751;49.802;9.944;2023-08-06T04:39:27;14.90;99.90
5457;DHT22;2751;49.802;9.944;2023-08-06T04:41:55;14.90;99.90
5457;DHT22;2751;49.802;9.944;2023-08-06T04:44:22;14.90;99.90
5457;DHT22;2751;49.802;9.944;2023-08-06T04:46:51;15.00;99.90
5457;DHT22;2751;49.802;9.944;2023-08-06T04:49:18;15.00;99.90
5457;DHT22;2751;49.802;9.944;2023-08-06T04:51:44;15.10;99.90
5457;DHT22;2751;49.802;9.944;2023-08-06T04:54:11;15.10;99.90
5457;DHT22;2751;49.802;9.944;2023-08-06T04:56:38;15.20;99.90
5457;DHT22;2751;49.802;9.944;2023-08-06T04:59:05;15.20;99.90
5457;DHT22;2751;49.802;9.944;2023-08-06T05:01:32;15.30;99.90
5457;DHT22;2751;49.802;9.944;2023-08-06T05:04:00;15.40;99.90
5457;DHT22;2751;49.802;9.944;2023-08-06T05:06:27;15.50;99.90
5457;DHT22;2751;49.802;9.944;2023-08-06T05:08:54;15.60;99.90
5457;DHT22;2751;49.802;9.944;2023-08-06T05:11:21;15.80;99.90
5457;DHT22;2751;49.802;9.944;2023-08-06T05:13:49;15.90;99.90
5457;DHT22;2751;49.802;9.944;2023-08-06T05:16:16;16.00;99.90
5457;DHT22;2751;49.802;9.944;2023-08-06T05:18:43;16.10;99.90
5457;DHT22;2751;49.802;9.944;2023-08-06T05:21:11;16.20;99.90
5457;DHT22;2751;49.802;9.944;2023-08-06T05:23:38;16.30;99.90
5457;DHT22;2751;49.802;9.944;2023-08-06T05:26:05;16.30;99.90
5457;DHT22;2751;49.802;9.944;2023-08-06T05:28:32;16.40;99.90
5457;DHT22;2751;49.802;9.944;2023-08-06T05:31:02;16.50;99.90
5457;DHT22;2751;49.802;9.944;2023-08-06T05:33:29;16.50;99.90
5457;DHT22;2751;49.802;9.944;2023-08-06T05:35:56;16.60;99.90
5457;DHT22;2751;49.802;9.944;2023-08-06T05:38:24;16.60;99.90
5457;DHT22;2751;49.802;9.944;2023-08-06T05:40:51;16.50;99.90
5457;DHT22;2751;49.802;9.944;2023-08-06T05:43:18;16.40;99.90
5457;DHT22;2751;49.802;9.944;2023-08-06T05:45:45;16.40;99.90
5457;DHT22;2751;49.802;9.944;2023-08-06T05:48:12;16.40;99.90
5457;DHT22;2751;49.802;9.944;2023-08-06T05:50:39;16.60;99.90
5457;DHT22;2751;49.802;9.944;2023-08-06T05:53:06;16.70;99.90
5457;DHT22;2751;49.802;9.944;2023-08-06T05:55:34;17.10;99.90
5457;DHT22;2751;49.802;9.944;2023-08-06T05:58:01;17.40;99.90
5457;DHT22;2751;49.802;9.944;2023-08-06T06:00:28;17.50;99.90
5457;DHT22;2751;49.802;9.944;2023-08-06T06:02:55;17.50;99.90
5457;DHT22;2751;49.802;9.944;2023-08-06T06:05:22;17.60;99.90
5457;DHT22;2751;49.802;9.944;2023-08-06T06:07:49;17.40;99.90
5457;DHT22;2751;49.802;9.944;2023-08-06T06:10:16;17.80;99.90
5457;DHT22;2751;49.802;9.944;2023-08-06T06:12:44;17.80;99.90
5457;DHT22;2751;49.802;9.944;2023-08-06T06:15:11;17.80;99.90
5457;DHT22;2751;49.802;9.944;2023-08-06T06:17:38;17.80;99.90
5457;DHT22;2751;49.802;9.944;2023-08-06T06:20:06;17.70;99.90
5457;DHT22;2751;49.802;9.944;2023-08-06T06:22:33;17.70;99.90
5457;DHT22;2751;49.802;9.944;2023-08-06T06:25:00;17.80;99.90
5457;DHT22;2751;49.802;9.944;2023-08-06T06:27:27;17.70;99.90
5457;DHT22;2751;49.802;9.944;2023-08-06T06:29:55;17.70;99.90
5457;DHT22;2751;49.802;9.944;2023-08-06T06:32:22;17.70;99.90
5457;DHT22;2751;49.802;9.944;2023-08-06T06:34:49;17.70;99.90
5457;DHT22;2751;49.802;9.944;2023-08-06T06:37:16;17.70;99.90
5457;DHT22;2751;49.802;9.944;2023-08-06T06:39:43;17.90;99.90
5457;DHT22;2751;49.802;9.944;2023-08-06T06:42:10;18.00;99.90
5457;DHT22;2751;49.802;9.944;2023-08-06T06:44:37;18.00;99.90
5457;DHT22;2751;49.802;9.944;2023-08-06T06:47:05;18.00;99.90
5457;DHT22;2751;49.802;9.944;2023-08-06T06:49:32;18.00;99.90
5457;DHT22;2751;49.802;9.944;2023-08-06T06:51:59;18.20;99.90
5457;DHT22;2751;49.802;9.944;2023-08-06T06:54:26;18.00;99.90
5457;DHT22;2751;49.802;9.944;2023-08-06T06:56:53;17.80;99.90
5457;DHT22;2751;49.802;9.944;2023-08-06T06:59:20;17.80;99.90
5457;DHT22;2751;49.802;9.944;2023-08-06T07:01:46;17.90;99.90
5457;DHT22;2751;49.802;9.944;2023-08-06T07:04:15;17.80;99.90
5457;DHT22;2751;49.802;9.944;2023-08-06T07:06:42;17.70;99.90
5457;DHT22;2751;49.802;9.944;2023-08-06T07:09:08;17.70;99.90
5457;DHT22;2751;49.802;9.944;2023-08-06T07:11:35;17.80;99.90
5457;DHT22;2751;49.802;9.944;2023-08-06T07:14:02;17.90;99.90
5457;DHT22;2751;49.802;9.944;2023-08-06T07:16:29;17.90;99.90
5457;DHT22;2751;49.802;9.944;2023-08-06T07:18:56;17.90;99.90
5457;DHT22;2751;49.802;9.944;2023-08-06T07:21:24;18.00;99.90
5457;DHT22;2751;49.802;9.944;2023-08-06T07:23:51;17.90;99.90
5457;DHT22;2751;49.802;9.944;2023-08-06T07:26:18;17.80;99.90
5457;DHT22;2751;49.802;9.944;2023-08-06T07:28:45;17.90;99.90
5457;DHT22;2751;49.802;9.944;2023-08-06T07:31:12;17.90;99.90
5457;DHT22;2751;49.802;9.944;2023-08-06T07:33:39;18.20;99.90
5457;DHT22;2751;49.802;9.944;2023-08-06T07:36:09;18.50;99.90
5457;DHT22;2751;49.802;9.944;2023-08-06T07:38:38;18.60;99.90
5457;DHT22;2751;49.802;9.944;2023-08-06T07:41:05;18.70;99.90
5457;DHT22;2751;49.802;9.944;2023-08-06T07:43:32;18.80;99.90
5457;DHT22;2751;49.802;9.944;2023-08-06T07:45:59;18.80;99.90
5457;DHT22;2751;49.802;9.944;2023-08-06T07:48:26;18.80;99.90
5457;DHT22;2751;49.802;9.944;2023-08-06T07:50:54;18.80;99.90
5457;DHT22;2751;49.802;9.944;2023-08-06T07:53:21;18.60;99.90
5457;DHT22;2751;49.802;9.944;2023-08-06T07:55:52;18.40;99.90
5457;DHT22;2751;49.802;9.944;2023-08-06T07:58:20;18.40;99.90
5457;DHT22;2751;49.802;9.944;2023-08-06T08:00:47;18.40;99.90
5457;DHT22;2751;49.802;9.944;2023-08-06T08:03:14;18.50;99.90
5457;DHT22;2751;49.802;9.944;2023-08-06T08:05:42;18.80;99.90
5457;DHT22;2751;49.802;9.944;2023-08-06T08:08:09;18.80;99.90
5457;DHT22;2751;49.802;9.944;2023-08-06T08:10:36;18.60;99.90
5457;DHT22;2751;49.802;9.944;2023-08-06T08:13:05;18.60;99.90
5457;DHT22;2751;49.802;9.944;2023-08-06T08:15:34;18.20;99.90
5457;DHT22;2751;49.802;9.944;2023-08-06T08:18:01;17.90;99.90
5457;DHT22;2751;49.802;9.944;2023-08-06T08:20:28;17.60;99.90
5457;DHT22;2751;49.802;9.944;2023-08-06T08:22:58;17.50;99.90
5457;DHT22;2751;49.802;9.944;2023-08-06T08:25:26;17.20;99.90
5457;DHT22;2751;49.802;9.944;2023-08-06T08:27:53;17.10;99.90
5457;DHT22;2751;49.802;9.944;2023-08-06T08:30:21;17.10;99.90
5457;DHT22;2751;49.802;9.944;2023-08-06T08:32:50;17.20;99.90
5457;DHT22;2751;49.802;9.944;2023-08-06T08:35:17;17.40;99.90
5457;DHT22;2751;49.802;9.944;2023-08-06T08:37:44;17.40;99.90
5457;DHT22;2751;49.802;9.944;2023-08-06T08:40:11;17.60;99.90
5457;DHT22;2751;49.802;9.944;2023-08-06T08:42:38;17.70;99.90
5457;DHT22;2751;49.802;9.944;2023-08-06T08:45:07;17.80;99.90
5457;DHT22;2751;49.802;9.944;2023-08-06T08:47:40;17.90;99.90
5457;DHT22;2751;49.802;9.944;2023-08-06T08:50:08;18.00;99.90
5457;DHT22;2751;49.802;9.944;2023-08-06T08:52:36;18.10;99.90
5457;DHT22;2751;49.802;9.944;2023-08-06T08:55:05;18.10;99.90
5457;DHT22;2751;49.802;9.944;2023-08-06T08:57:33;18.20;99.90
5457;DHT22;2751;49.802;9.944;2023-08-06T09:00:00;18.40;99.90
5457;DHT22;2751;49.802;9.944;2023-08-06T09:02:28;18.40;99.90
5457;DHT22;2751;49.802;9.944;2023-08-06T09:04:59;18.60;99.90
5457;DHT22;2751;49.802;9.944;2023-08-06T09:07:30;18.60;99.90
5457;DHT22;2751;49.802;9.944;2023-08-06T09:09:59;18.60;99.90
5457;DHT22;2751;49.802;9.944;2023-08-06T09:12:29;18.80;99.90
5457;DHT22;2751;49.802;9.944;2023-08-06T09:14:56;19.40;99.90
5457;DHT22;2751;49.802;9.944;2023-08-06T09:17:23;20.00;99.90
5457;DHT22;2751;49.802;9.944;2023-08-06T09:19:50;20.10;99.90
5457;DHT22;2751;49.802;9.944;2023-08-06T09:22:18;19.90;99.90
5457;DHT22;2751;49.802;9.944;2023-08-06T09:24:45;19.70;99.90
5457;DHT22;2751;49.802;9.944;2023-08-06T09:27:12;19.50;99.90
5457;DHT22;2751;49.802;9.944;2023-08-06T09:29:41;19.10;99.90
5457;DHT22;2751;49.802;9.944;2023-08-06T09:32:09;19.10;99.90
5457;DHT22;2751;49.802;9.944;2023-08-06T09:34:39;19.00;99.90
5457;DHT22;2751;49.802;9.944;2023-08-06T09:37:06;19.00;99.90
5457;DHT22;2751;49.802;9.944;2023-08-06T09:39:37;19.00;99.90
5457;DHT22;2751;49.802;9.944;2023-08-06T09:42:05;19.10;99.90
5457;DHT22;2751;49.802;9.944;2023-08-06T09:44:33;19.60;99.90
5457;DHT22;2751;49.802;9.944;2023-08-06T09:47:01;20.20;99.90
5457;DHT22;2751;49.802;9.944;2023-08-06T09:49:42;20.50;99.90
5457;DHT22;2751;49.802;9.944;2023-08-06T09:52:12;20.40;99.90
5457;DHT22;2751;49.802;9.944;2023-08-06T09:54:40;20.30;99.90
5457;DHT22;2751;49.802;9.944;2023-08-06T09:57:08;20.60;99.90
5457;DHT22;2751;49.802;9.944;2023-08-06T09:59:37;21.20;99.90
5457;DHT22;2751;49.802;9.944;2023-08-06T10:02:10;22.70;99.90
5457;DHT22;2751;49.802;9.944;2023-08-06T10:04:39;22.60;99.90
5457;DHT22;2751;49.802;9.944;2023-08-06T10:07:06;22.40;99.90
5457;DHT22;2751;49.802;9.944;2023-08-06T10:09:33;21.60;99.90
5457;DHT22;2751;49.802;9.944;2023-08-06T10:12:01;21.80;99.90
5457;DHT22;2751;49.802;9.944;2023-08-06T10:14:30;22.10;99.90
5457;DHT22;2751;49.802;9.944;2023-08-06T10:16:59;22.50;99.90
5457;DHT22;2751;49.802;9.944;2023-08-06T10:19:27;21.50;99.90
5457;DHT22;2751;49.802;9.944;2023-08-06T10:22:12;21.00;99.90
5457;DHT22;2751;49.802;9.944;2023-08-06T10:24:47;20.60;99.90
5457;DHT22;2751;49.802;9.944;2023-08-06T10:27:20;20.10;99.90
5457;DHT22;2751;49.802;9.944;2023-08-06T10:29:47;19.70;99.90
5457;DHT22;2751;49.802;9.944;2023-08-06T10:32:14;19.50;99.90
5457;DHT22;2751;49.802;9.944;2023-08-06T10:34:57;20.40;99.90
5457;DHT22;2751;49.802;9.944;2023-08-06T10:37:35;21.90;99.90
5457;DHT22;2751;49.802;9.944;2023-08-06T10:40:02;22.90;99.90
5457;DHT22;2751;49.802;9.944;2023-08-06T10:42:31;24.30;99.90
5457;DHT22;2751;49.802;9.944;2023-08-06T10:45:17;24.40;99.90
5457;DHT22;2751;49.802;9.944;2023-08-06T10:47:45;24.70;99.90
5457;DHT22;2751;49.802;9.944;2023-08-06T10:50:14;26.10;99.90
5457;DHT22;2751;49.802;9.944;2023-08-06T10:52:42;26.80;99.90
5457;DHT22;2751;49.802;9.944;2023-08-06T10:55:09;27.30;99.90
5457;DHT22;2751;49.802;9.944;2023-08-06T10:57:38;28.40;99.90
5457;DHT22;2751;49.802;9.944;2023-08-06T11:00:06;28.60;99.90
5457;DHT22;2751;49.802;9.944;2023-08-06T11:02:34;26.40;99.90
5457;DHT22;2751;49.802;9.944;2023-08-06T11:05:06;24.50;99.90
5457;DHT22;2751;49.802;9.944;2023-08-06T11:07:33;25.10;99.90
5457;DHT22;2751;49.802;9.944;2023-08-06T11:10:04;25.50;99.90
5457;DHT22;2751;49.802;9.944;2023-08-06T11:12:31;24.80;99.90
5457;DHT22;2751;49.802;9.944;2023-08-06T11:15:00;23.70;99.90
5457;DHT22;2751;49.802;9.944;2023-08-06T11:17:28;23.00;99.90
5457;DHT22;2751;49.802;9.944;2023-08-06T11:19:55;23.20;99.90
5457;DHT22;2751;49.802;9.944;2023-08-06T11:22:22;25.40;99.90
5457;DHT22;2751;49.802;9.944;2023-08-06T11:24:49;26.70;99.90
5457;DHT22;2751;49.802;9.944;2023-08-06T11:27:17;28.10;99.90
5457;DHT22;2751;49.802;9.944;2023-08-06T11:29:44;29.20;99.90
5457;DHT22;2751;49.802;9.944;2023-08-06T11:32:13;29.30;99.90
5457;DHT22;2751;49.802;9.944;2023-08-06T11:34:40;30.40;98.90
5457;DHT22;2751;49.802;9.944;2023-08-06T11:37:07;31.20;95.60
5457;DHT22;2751;49.802;9.944;2023-08-06T11:39:34;31.70;94.20
5457;DHT22;2751;49.802;9.944;2023-08-06T11:42:03;31.90;90.40
5457;DHT22;2751;49.802;9.944;2023-08-06T11:44:31;32.60;1.00
5457;DHT22;2751;49.802;9.944;2023-08-06T11:46:59;31.10;1.00
5457;DHT22;2751;49.802;9.944;2023-08-06T11:49:42;29.60;1.00
5457;DHT22;2751;49.802;9.944;2023-08-06T11:52:14;29.70;1.00
5457;DHT22;2751;49.802;9.944;2023-08-06T11:54:41;29.10;1.00
5457;DHT22;2751;49.802;9.944;2023-08-06T11:57:08;27.70;1.00
5457;DHT22;2751;49.802;9.944;2023-08-06T11:59:35;24.80;1.00
5457;DHT22;2751;49.802;9.944;2023-08-06T12:02:04;22.20;99.90
5457;DHT22;2751;49.802;9.944;2023-08-06T12:04:31;19.90;99.90
5457;DHT22;2751;49.802;9.944;2023-08-06T12:07:06;18.20;99.90
5457;DHT22;2751;49.802;9.944;2023-08-06T12:09:34;17.50;99.90
5457;DHT22;2751;49.802;9.944;2023-08-06T12:12:02;17.40;99.90
5457;DHT22;2751;49.802;9.944;2023-08-06T12:14:29;17.50;99.90
5457;DHT22;2751;49.802;9.944;2023-08-06T12:16:56;17.60;99.90
5457;DHT22;2751;49.802;9.944;2023-08-06T12:19:23;17.70;99.90
5457;DHT22;2751;49.802;9.944;2023-08-06T12:21:51;18.10;99.90
5457;DHT22;2751;49.802;9.944;2023-08-06T12:24:19;18.40;99.90
5457;DHT22;2751;49.802;9.944;2023-08-06T12:26:46;19.30;99.90
5457;DHT22;2751;49.802;9.944;2023-08-06T12:29:13;21.60;99.90
5457;DHT22;2751;49.802;9.944;2023-08-06T12:31:40;23.60;99.90
5457;DHT22;2751;49.802;9.944;2023-08-06T12:34:07;23.10;99.90
5457;DHT22;2751;49.802;9.944;2023-08-06T12:36:34;20.70;99.90
5457;DHT22;2751;49.802;9.944;2023-08-06T12:39:01;18.90;99.90
5457;DHT22;2751;49.802;9.944;2023-08-06T12:41:29;18.30;99.90
5457;DHT22;2751;49.802;9.944;2023-08-06T12:43:56;17.90;99.90
5457;DHT22;2751;49.802;9.944;2023-08-06T12:46:22;17.90;99.90
5457;DHT22;2751;49.802;9.944;2023-08-06T12:48:49;18.00;99.90
5457;DHT22;2751;49.802;9.944;2023-08-06T12:51:16;18.00;99.90
5457;DHT22;2751;49.802;9.944;2023-08-06T12:53:43;18.10;99.90
5457;DHT22;2751;49.802;9.944;2023-08-06T12:56:10;18.10;99.90
5457;DHT22;2751;49.802;9.944;2023-08-06T12:58:38;18.10;99.90
5457;DHT22;2751;49.802;9.944;2023-08-06T13:01:05;18.00;99.90
5457;DHT22;2751;49.802;9.944;2023-08-06T13:03:32;17.90;99.90
5457;DHT22;2751;49.802;9.944;2023-08-06T13:05:59;17.80;99.90
5457;DHT22;2751;49.802;9.944;2023-08-06T13:08:26;17.80;99.90
5457;DHT22;2751;49.802;9.944;2023-08-06T13:10:53;17.90;99.90
5457;DHT22;2751;49.802;9.944;2023-08-06T13:13:19;18.10;99.90
5457;DHT22;2751;49.802;9.944;2023-08-06T13:15:48;18.10;99.90
5457;DHT22;2751;49.802;9.944;2023-08-06T13:18:14;18.00;99.90
5457;DHT22;2751;49.802;9.944;2023-08-06T13:20:41;17.60;99.90
5457;DHT22;2751;49.802;9.944;2023-08-06T13:23:08;17.30;99.90
5457;DHT22;2751;49.802;9.944;2023-08-06T13:25:35;17.00;99.90
5457;DHT22;2751;49.802;9.944;2023-08-06T13:28:04;16.40;99.90
5457;DHT22;2751;49.802;9.944;2023-08-06T13:30:31;16.40;99.90
5457;DHT22;2751;49.802;9.944;2023-08-06T13:33:01;16.40;99.90
5457;DHT22;2751;49.802;9.944;2023-08-06T13:35:30;16.30;99.90
5457;DHT22;2751;49.802;9.944;2023-08-06T13:37:57;16.20;99.90
5457;DHT22;2751;49.802;9.944;2023-08-06T13:40:23;16.00;99.90
5457;DHT22;2751;49.802;9.944;2023-08-06T13:42:50;16.10;99.90
5457;DHT22;2751;49.802;9.944;2023-08-06T13:45:17;16.30;99.90
5457;DHT22;2751;49.802;9.944;2023-08-06T13:47:44;16.40;99.90
5457;DHT22;2751;49.802;9.944;2023-08-06T13:50:12;16.50;99.90
5457;DHT22;2751;49.802;9.944;2023-08-06T13:52:39;16.60;99.90
5457;DHT22;2751;49.802;9.944;2023-08-06T13:55:07;16.80;99.90
5457;DHT22;2751;49.802;9.944;2023-08-06T13:57:34;16.90;99.90
5457;DHT22;2751;49.802;9.944;2023-08-06T14:00:02;17.20;99.90
5457;DHT22;2751;49.802;9.944;2023-08-06T14:02:29;17.40;99.90
5457;DHT22;2751;49.802;9.944;2023-08-06T14:04:56;17.20;99.90
5457;DHT22;2751;49.802;9.944;2023-08-06T14:07:24;17.10;99.90
5457;DHT22;2751;49.802;9.944;2023-08-06T14:09:51;17.30;99.90
5457;DHT22;2751;49.802;9.944;2023-08-06T14:12:18;17.20;99.90
5457;DHT22;2751;49.802;9.944;2023-08-06T14:14:45;17.10;99.90
5457;DHT22;2751;49.802;9.944;2023-08-06T14:17:12;17.10;99.90
5457;DHT22;2751;49.802;9.944;2023-08-06T14:19:39;17.10;99.90
5457;DHT22;2751;49.802;9.944;2023-08-06T14:22:06;17.20;99.90
5457;DHT22;2751;49.802;9.944;2023-08-06T14:24:34;17.20;99.90
5457;DHT22;2751;49.802;9.944;2023-08-06T14:27:02;16.80;99.90
5457;DHT22;2751;49.802;9.944;2023-08-06T14:29:29;16.50;99.90
5457;DHT22;2751;49.802;9.944;2023-08-06T14:31:56;16.40;99.90
5457;DHT22;2751;49.802;9.944;2023-08-06T14:34:23;16.40;99.90
5457;DHT22;2751;49.802;9.944;2023-08-06T14:36:50;16.40;99.90
5457;DHT22;2751;49.802;9.944;2023-08-06T14:39:17;16.50;99.90
5457;DHT22;2751;49.802;9.944;2023-08-06T14:41:45;16.50;99.90
5457;DHT22;2751;49.802;9.944;2023-08-06T14:44:12;16.60;99.90
5457;DHT22;2751;49.802;9.944;2023-08-06T14:46:39;16.80;99.90
5457;DHT22;2751;49.802;9.944;2023-08-06T14:49:06;16.60;99.90
5457;DHT22;2751;49.802;9.944;2023-08-06T14:51:33;16.70;99.90
5457;DHT22;2751;49.802;9.944;2023-08-06T14:54:00;17.20;99.90
5457;DHT22;2751;49.802;9.944;2023-08-06T14:56:27;17.50;99.90
5457;DHT22;2751;49.802;9.944;2023-08-06T14:58:55;17.60;99.90
5457;DHT22;2751;49.802;9.944;2023-08-06T15:01:22;18.30;99.90
5457;DHT22;2751;49.802;9.944;2023-08-06T15:03:49;17.90;99.90
5457;DHT22;2751;49.802;9.944;2023-08-06T15:06:16;17.70;99.90
5457;DHT22;2751;49.802;9.944;2023-08-06T15:08:43;17.30;99.90
5457;DHT22;2751;49.802;9.944;2023-08-06T15:11:13;17.30;99.90
5457;DHT22;2751;49.802;9.944;2023-08-06T15:13:40;17.30;99.90
5457;DHT22;2751;49.802;9.944;2023-08-06T15:16:08;18.00;99.90
5457;DHT22;2751;49.802;9.944;2023-08-06T15:18:35;18.60;99.90
5457;DHT22;2751;49.802;9.944;2023-08-06T15:21:02;19.30;99.90
5457;DHT22;2751;49.802;9.944;2023-08-06T15:23:29;19.40;99.90
5457;DHT22;2751;49.802;9.944;2023-08-06T15:25:56;19.10;99.90
5457;DHT22;2751;49.802;9.944;2023-08-06T15:28:22;18.90;99.90
5457;DHT22;2751;49.802;9.944;2023-08-06T15:30:51;18.60;99.90
5457;DHT22;2751;49.802;9.944;2023-08-06T15:33:19;18.20;99.90
5457;DHT22;2751;49.802;9.944;2023-08-06T15:35:47;18.20;99.90
5457;DHT22;2751;49.802;9.944;2023-08-06T15:38:14;18.10;99.90
5457;DHT22;2751;49.802;9.944;2023-08-06T15:40:41;17.70;99.90
5457;DHT22;2751;49.802;9.944;2023-08-06T15:43:10;17.60;99.90
5457;DHT22;2751;49.802;9.944;2023-08-06T15:45:37;17.60;99.90
5457;DHT22;2751;49.802;9.944;2023-08-06T15:48:04;17.60;99.90
5457;DHT22;2751;49.802;9.944;2023-08-06T15:50:32;17.60;99.90
5457;DHT22;2751;49.802;9.944;2023-08-06T15:52:59;17.60;99.90
5457;DHT22;2751;49.802;9.944;2023-08-06T15:55:26;17.60;99.90
5457;DHT22;2751;49.802;9.944;2023-08-06T15:57:53;17.60;99.90
5457;DHT22;2751;49.802;9.944;2023-08-06T16:00:20;17.70;99.90
5457;DHT22;2751;49.802;9.944;2023-08-06T16:02:47;17.60;99.90
5457;DHT22;2751;49.802;9.944;2023-08-06T16:05:13;17.60;99.90